sensor_id;sensor_type;location;lat;lon;timestamp;P1;durP1;ratioP1;P2;durP2;ratioP2
12171;SDS011;6149;52.418;13.668;2022-10-16T00:01:29;6.33;;;5.73;;
12171;SDS011;6149;52.418;13.668;2022-10-16T00:03:57;6.47;;;5.83;;
12171;SDS011;6149;52.418;13.668;2022-10-16T00:06:27;7.63;;;6.10;;
12171;SDS011;6149;52.418;13.668;2022-10-16T00:08:58;8.97;;;5.60;;
12171;SDS011;6149;52.418;13.668;2022-10-16T00:11:27;7.13;;;5.57;;
12171;SDS011;6149;52.418;13.668;2022-10-16T00:13:56;6.50;;;5.90;;
12171;SDS011;6149;52.418;13.668;2022-10-16T00:16:26;5.70;;;5.20;;
12171;SDS011;6149;52.418;13.668;2022-10-16T00:18:54;6.67;;;5.30;;
12171;SDS011;6149;52.418;13.668;2022-10-16T00:21:24;6.13;;;5.63;;
12171;SDS011;6149;52.418;13.668;2022-10-16T00:23:54;9.53;;;5.73;;
12171;SDS011;6149;52.418;13.668;2022-10-16T00:26:26;8.07;;;6.17;;
12171;SDS011;6149;52.418;13.668;2022-10-16T00:28:54;6.20;;;5.60;;
12171;SDS011;6149;52.418;13.668;2022-10-16T00:31:22;5.30;;;4.80;;
12171;SDS011;6149;52.418;13.668;2022-10-16T00:33:50;5.17;;;4.67;;
12171;SDS011;6149;52.418;13.668;2022-10-16T00:36:18;6.07;;;5.47;;
12171;SDS011;6149;52.418;13.668;2022-10-16T00:38:49;5.83;;;4.63;;
12171;SDS011;6149;52.418;13.668;2022-10-16T00:41:20;6.00;;;4.80;;
12171;SDS011;6149;52.418;13.668;2022-10-16T00:43:51;5.03;;;4.47;;
12171;SDS011;6149;52.418;13.668;2022-10-16T00:46:20;5.43;;;4.70;;
12171;SDS011;6149;52.418;13.668;2022-10-16T00:48:50;6.20;;;5.10;;
12171;SDS011;6149;52.418;13.668;2022-10-16T00:51:28;5.20;;;4.67;;
12171;SDS011;6149;52.418;13.668;2022-10-16T00:53:59;6.03;;;4.27;;
12171;SDS011;6149;52.418;13.668;2022-10-16T00:56:31;5.73;;;4.47;;
12171;SDS011;6149;52.418;13.668;2022-10-16T00:58:58;4.67;;;4.27;;
12171;SDS011;6149;52.418;13.668;2022-10-16T01:01:28;4.70;;;4.30;;
12171;SDS011;6149;52.418;13.668;2022-10-16T01:03:55;4.77;;;4.27;;
12171;SDS011;6149;52.418;13.668;2022-10-16T01:06:23;4.97;;;4.47;;
12171;SDS011;6149;52.418;13.668;2022-10-16T01:09:01;4.67;;;3.40;;
12171;SDS011;6149;52.418;13.668;2022-10-16T01:11:44;3.90;;;3.50;;
12171;SDS011;6149;52.418;13.668;2022-10-16T01:14:21;5.13;;;3.90;;
12171;SDS011;6149;52.418;13.668;2022-10-16T01:16:56;4.17;;;3.87;;
12171;SDS011;6149;52.418;13.668;2022-10-16T01:19:36;3.57;;;3.27;;
12171;SDS011;6149;52.418;13.668;2022-10-16T01:22:20;4.00;;;3.17;;
12171;SDS011;6149;52.418;13.668;2022-10-16T01:24:52;4.17;;;3.53;;
12171;SDS011;6149;52.418;13.668;2022-10-16T01:27:24;3.83;;;3.53;;
12171;SDS011;6149;52.418;13.668;2022-10-16T01:29:53;3.20;;;3.00;;
12171;SDS011;6149;52.418;13.668;2022-10-16T01:32:27;4.53;;;3.43;;
12171;SDS011;6149;52.418;13.668;2022-10-16T01:35:04;3.60;;;3.30;;
12171;SDS011;6149;52.418;13.668;2022-10-16T01:37:37;4.33;;;3.10;;
12171;SDS011;6149;52.418;13.668;2022-10-16T01:40:11;3.63;;;3.27;;
12171;SDS011;6149;52.418;13.668;2022-10-16T01:42:46;3.30;;;3.00;;
12171;SDS011;6149;52.418;13.668;2022-10-16T01:45:19;3.63;;;3.03;;
12171;SDS011;6149;52.418;13.668;2022-10-16T01:47:51;3.47;;;3.13;;
12171;SDS011;6149;52.418;13.668;2022-10-16T01:50:21;4.37;;;3.23;;
12171;SDS011;6149;52.418;13.668;2022-10-16T01:52:50;4.33;;;3.33;;
12171;SDS011;6149;52.418;13.668;2022-10-16T01:55:24;4.50;;;3.27;;
12171;SDS011;6149;52.418;13.668;2022-10-16T01:57:58;3.23;;;2.93;;
12171;SDS011;6149;52.418;13.668;2022-10-16T02:00:28;3.73;;;3.00;;
12171;SDS011;6149;52.418;13.668;2022-10-16T02:02:58;3.43;;;3.13;;
12171;SDS011;6149;52.418;13.668;2022-10-16T02:05:30;3.23;;;3.00;;
12171;SDS011;6149;52.418;13.668;2022-10-16T02:08:04;3.40;;;3.10;;
12171;SDS011;6149;52.418;13.668;2022-10-16T02:10:32;2.83;;;2.63;;
12171;SDS011;6149;52.418;13.668;2022-10-16T02:13:06;3.53;;;3.23;;
12171;SDS011;6149;52.418;13.668;2022-10-16T02:15:38;3.47;;;3.17;;
12171;SDS011;6149;52.418;13.668;2022-10-16T02:18:06;3.23;;;2.93;;
12171;SDS011;6149;52.418;13.668;2022-10-16T02:20:36;3.80;;;3.40;;
12171;SDS011;6149;52.418;13.668;2022-10-16T02:23:14;3.30;;;3.00;;
12171;SDS011;6149;52.418;13.668;2022-10-16T02:25:52;3.10;;;2.60;;
12171;SDS011;6149;52.418;13.668;2022-10-16T02:28:25;2.80;;;2.60;;
12171;SDS011;6149;52.418;13.668;2022-10-16T02:31:01;3.33;;;3.03;;
12171;SDS011;6149;52.418;13.668;2022-10-16T02:33:32;3.77;;;2.80;;
12171;SDS011;6149;52.418;13.668;2022-10-16T02:36:03;3.03;;;2.50;;
12171;SDS011;6149;52.418;13.668;2022-10-16T02:38:31;2.90;;;2.70;;
12171;SDS011;6149;52.418;13.668;2022-10-16T02:40:59;3.13;;;2.33;;
12171;SDS011;6149;52.418;13.668;2022-10-16T02:43:30;3.50;;;2.80;;
12171;SDS011;6149;52.418;13.668;2022-10-16T02:45:58;4.40;;;2.73;;
12171;SDS011;6149;52.418;13.668;2022-10-16T02:48:26;2.83;;;2.63;;
12171;SDS011;6149;52.418;13.668;2022-10-16T02:50:56;2.93;;;2.73;;
12171;SDS011;6149;52.418;13.668;2022-10-16T02:53:24;3.13;;;2.83;;
12171;SDS011;6149;52.418;13.668;2022-10-16T02:55:51;4.40;;;2.70;;
12171;SDS011;6149;52.418;13.668;2022-10-16T02:58:19;3.10;;;2.80;;
12171;SDS011;6149;52.418;13.668;2022-10-16T03:00:49;2.60;;;2.40;;
12171;SDS011;6149;52.418;13.668;2022-10-16T03:03:17;4.13;;;3.17;;
12171;SDS011;6149;52.418;13.668;2022-10-16T03:05:46;8.03;;;3.33;;
12171;SDS011;6149;52.418;13.668;2022-10-16T03:08:15;3.00;;;2.80;;
12171;SDS011;6149;52.418;13.668;2022-10-16T03:10:43;2.90;;;2.30;;
12171;SDS011;6149;52.418;13.668;2022-10-16T03:13:12;2.83;;;2.53;;
12171;SDS011;6149;52.418;13.668;2022-10-16T03:15:40;4.73;;;2.50;;
12171;SDS011;6149;52.418;13.668;2022-10-16T03:18:09;2.77;;;2.57;;
12171;SDS011;6149;52.418;13.668;2022-10-16T03:20:36;4.07;;;2.40;;
12171;SDS011;6149;52.418;13.668;2022-10-16T03:23:06;2.47;;;2.27;;
12171;SDS011;6149;52.418;13.668;2022-10-16T03:25:35;2.70;;;2.50;;
12171;SDS011;6149;52.418;13.668;2022-10-16T03:28:03;2.50;;;2.30;;
12171;SDS011;6149;52.418;13.668;2022-10-16T03:30:31;2.60;;;2.40;;
12171;SDS011;6149;52.418;13.668;2022-10-16T03:32:59;2.10;;;1.90;;
12171;SDS011;6149;52.418;13.668;2022-10-16T03:35:27;2.73;;;2.53;;
12171;SDS011;6149;52.418;13.668;2022-10-16T03:37:56;2.73;;;2.53;;
12171;SDS011;6149;52.418;13.668;2022-10-16T03:40:24;2.93;;;2.50;;
12171;SDS011;6149;52.418;13.668;2022-10-16T03:42:51;2.50;;;2.30;;
12171;SDS011;6149;52.418;13.668;2022-10-16T03:45:20;2.60;;;2.23;;
12171;SDS011;6149;52.418;13.668;2022-10-16T03:47:47;3.43;;;2.20;;
12171;SDS011;6149;52.418;13.668;2022-10-16T03:50:13;2.87;;;2.53;;
12171;SDS011;6149;52.418;13.668;2022-10-16T03:52:43;2.67;;;2.47;;
12171;SDS011;6149;52.418;13.668;2022-10-16T03:55:09;2.53;;;2.33;;
12171;SDS011;6149;52.418;13.668;2022-10-16T03:57:37;2.37;;;2.17;;
12171;SDS011;6149;52.418;13.668;2022-10-16T04:00:04;2.77;;;2.50;;
12171;SDS011;6149;52.418;13.668;2022-10-16T04:02:33;2.83;;;2.63;;
12171;SDS011;6149;52.418;13.668;2022-10-16T04:04:59;2.20;;;2.00;;
12171;SDS011;6149;52.418;13.668;2022-10-16T04:07:27;2.40;;;2.30;;
12171;SDS011;6149;52.418;13.668;2022-10-16T04:09:55;3.10;;;2.13;;
12171;SDS011;6149;52.418;13.668;2022-10-16T04:12:25;2.40;;;2.20;;
12171;SDS011;6149;52.418;13.668;2022-10-16T04:14:52;3.33;;;2.43;;
12171;SDS011;6149;52.418;13.668;2022-10-16T04:17:19;2.43;;;2.23;;
12171;SDS011;6149;52.418;13.668;2022-10-16T04:19:46;2.43;;;2.23;;
12171;SDS011;6149;52.418;13.668;2022-10-16T04:22:14;2.50;;;2.30;;
12171;SDS011;6149;52.418;13.668;2022-10-16T04:24:40;2.67;;;2.30;;
12171;SDS011;6149;52.418;13.668;2022-10-16T04:27:09;2.63;;;2.37;;
12171;SDS011;6149;52.418;13.668;2022-10-16T04:29:36;2.53;;;2.33;;
12171;SDS011;6149;52.418;13.668;2022-10-16T04:32:03;2.70;;;2.50;;
12171;SDS011;6149;52.418;13.668;2022-10-16T04:34:31;2.60;;;2.40;;
12171;SDS011;6149;52.418;13.668;2022-10-16T04:36:59;2.40;;;2.20;;
12171;SDS011;6149;52.418;13.668;2022-10-16T04:39:25;2.53;;;2.33;;
12171;SDS011;6149;52.418;13.668;2022-10-16T04:41:53;2.37;;;2.17;;
12171;SDS011;6149;52.418;13.668;2022-10-16T04:44:22;2.83;;;2.50;;
12171;SDS011;6149;52.418;13.668;2022-10-16T04:46:50;3.20;;;2.30;;
12171;SDS011;6149;52.418;13.668;2022-10-16T04:49:18;2.70;;;2.07;;
12171;SDS011;6149;52.418;13.668;2022-10-16T04:51:46;2.60;;;2.40;;
12171;SDS011;6149;52.418;13.668;2022-10-16T04:54:14;2.63;;;2.43;;
12171;SDS011;6149;52.418;13.668;2022-10-16T04:56:42;2.50;;;2.30;;
12171;SDS011;6149;52.418;13.668;2022-10-16T04:59:13;2.47;;;2.27;;
12171;SDS011;6149;52.418;13.668;2022-10-16T05:01:43;2.20;;;2.10;;
12171;SDS011;6149;52.418;13.668;2022-10-16T05:04:12;2.03;;;1.90;;
12171;SDS011;6149;52.418;13.668;2022-10-16T05:06:41;2.30;;;2.10;;
12171;SDS011;6149;52.418;13.668;2022-10-16T05:09:09;2.70;;;2.50;;
12171;SDS011;6149;52.418;13.668;2022-10-16T05:11:37;3.63;;;2.20;;
12171;SDS011;6149;52.418;13.668;2022-10-16T05:14:07;2.13;;;2.00;;
12171;SDS011;6149;52.418;13.668;2022-10-16T05:16:35;2.50;;;2.30;;
12171;SDS011;6149;52.418;13.668;2022-10-16T05:19:05;2.57;;;2.30;;
12171;SDS011;6149;52.418;13.668;2022-10-16T05:21:33;1.70;;;1.60;;
12171;SDS011;6149;52.418;13.668;2022-10-16T05:24:01;2.77;;;1.90;;
12171;SDS011;6149;52.418;13.668;2022-10-16T05:26:29;2.00;;;1.90;;
12171;SDS011;6149;52.418;13.668;2022-10-16T05:28:57;2.03;;;1.93;;
12171;SDS011;6149;52.418;13.668;2022-10-16T05:31:24;2.60;;;2.00;;
12171;SDS011;6149;52.418;13.668;2022-10-16T05:33:52;4.30;;;2.40;;
12171;SDS011;6149;52.418;13.668;2022-10-16T05:36:27;2.47;;;2.27;;
12171;SDS011;6149;52.418;13.668;2022-10-16T05:38:55;2.73;;;2.40;;
12171;SDS011;6149;52.418;13.668;2022-10-16T05:41:24;2.80;;;2.60;;
12171;SDS011;6149;52.418;13.668;2022-10-16T05:43:52;2.57;;;2.37;;
12171;SDS011;6149;52.418;13.668;2022-10-16T05:46:20;2.27;;;2.07;;
12171;SDS011;6149;52.418;13.668;2022-10-16T05:48:48;2.23;;;2.10;;
12171;SDS011;6149;52.418;13.668;2022-10-16T05:51:19;2.10;;;2.00;;
12171;SDS011;6149;52.418;13.668;2022-10-16T05:53:49;1.93;;;1.83;;
12171;SDS011;6149;52.418;13.668;2022-10-16T05:56:19;2.13;;;2.00;;
12171;SDS011;6149;52.418;13.668;2022-10-16T05:58:47;1.90;;;1.80;;
12171;SDS011;6149;52.418;13.668;2022-10-16T06:01:16;1.77;;;1.67;;
12171;SDS011;6149;52.418;13.668;2022-10-16T06:03:54;2.53;;;2.07;;
12171;SDS011;6149;52.418;13.668;2022-10-16T06:06:23;2.40;;;2.20;;
12171;SDS011;6149;52.418;13.668;2022-10-16T06:08:54;2.20;;;2.10;;
12171;SDS011;6149;52.418;13.668;2022-10-16T06:11:24;2.27;;;2.00;;
12171;SDS011;6149;52.418;13.668;2022-10-16T06:13:56;2.30;;;2.10;;
12171;SDS011;6149;52.418;13.668;2022-10-16T06:16:28;1.90;;;1.80;;
12171;SDS011;6149;52.418;13.668;2022-10-16T06:18:58;2.23;;;2.03;;
12171;SDS011;6149;52.418;13.668;2022-10-16T06:21:38;2.70;;;2.50;;
12171;SDS011;6149;52.418;13.668;2022-10-16T06:24:08;2.03;;;1.93;;
12171;SDS011;6149;52.418;13.668;2022-10-16T06:26:37;2.60;;;2.40;;
12171;SDS011;6149;52.418;13.668;2022-10-16T06:29:05;2.47;;;2.27;;
12171;SDS011;6149;52.418;13.668;2022-10-16T06:31:33;2.20;;;2.10;;
12171;SDS011;6149;52.418;13.668;2022-10-16T06:34:02;2.50;;;2.30;;
12171;SDS011;6149;52.418;13.668;2022-10-16T06:36:36;2.47;;;2.27;;
12171;SDS011;6149;52.418;13.668;2022-10-16T06:39:03;2.67;;;2.37;;
12171;SDS011;6149;52.418;13.668;2022-10-16T06:41:34;1.97;;;1.70;;
12171;SDS011;6149;52.418;13.668;2022-10-16T06:44:01;3.07;;;2.20;;
12171;SDS011;6149;52.418;13.668;2022-10-16T06:46:33;2.27;;;2.07;;
12171;SDS011;6149;52.418;13.668;2022-10-16T06:49:00;2.43;;;2.23;;
12171;SDS011;6149;52.418;13.668;2022-10-16T06:51:28;2.33;;;2.00;;
12171;SDS011;6149;52.418;13.668;2022-10-16T06:53:57;2.50;;;2.30;;
12171;SDS011;6149;52.418;13.668;2022-10-16T06:56:26;2.80;;;2.40;;
12171;SDS011;6149;52.418;13.668;2022-10-16T06:58:58;3.53;;;3.03;;
12171;SDS011;6149;52.418;13.668;2022-10-16T07:01:26;4.03;;;3.67;;
12171;SDS011;6149;52.418;13.668;2022-10-16T07:03:54;3.70;;;3.40;;
12171;SDS011;6149;52.418;13.668;2022-10-16T07:06:23;3.20;;;3.00;;
12171;SDS011;6149;52.418;13.668;2022-10-16T07:08:53;3.30;;;3.00;;
12171;SDS011;6149;52.418;13.668;2022-10-16T07:11:20;3.30;;;3.00;;
12171;SDS011;6149;52.418;13.668;2022-10-16T07:13:50;3.93;;;3.40;;
12171;SDS011;6149;52.418;13.668;2022-10-16T07:16:19;4.27;;;2.50;;
12171;SDS011;6149;52.418;13.668;2022-10-16T07:18:48;3.00;;;2.70;;
12171;SDS011;6149;52.418;13.668;2022-10-16T07:21:17;4.00;;;3.30;;
12171;SDS011;6149;52.418;13.668;2022-10-16T07:23:49;2.87;;;2.60;;
12171;SDS011;6149;52.418;13.668;2022-10-16T07:26:16;3.00;;;2.70;;
12171;SDS011;6149;52.418;13.668;2022-10-16T07:28:44;3.13;;;2.83;;
12171;SDS011;6149;52.418;13.668;2022-10-16T07:31:12;3.70;;;2.33;;
12171;SDS011;6149;52.418;13.668;2022-10-16T07:33:45;3.17;;;2.60;;
12171;SDS011;6149;52.418;13.668;2022-10-16T07:36:13;2.73;;;2.47;;
12171;SDS011;6149;52.418;13.668;2022-10-16T07:38:42;6.23;;;2.53;;
12171;SDS011;6149;52.418;13.668;2022-10-16T07:41:10;5.17;;;2.50;;
12171;SDS011;6149;52.418;13.668;2022-10-16T07:43:39;3.83;;;2.60;;
12171;SDS011;6149;52.418;13.668;2022-10-16T07:46:07;3.57;;;2.10;;
12171;SDS011;6149;52.418;13.668;2022-10-16T07:48:35;4.83;;;2.10;;
12171;SDS011;6149;52.418;13.668;2022-10-16T07:51:05;2.30;;;2.10;;
12171;SDS011;6149;52.418;13.668;2022-10-16T07:53:34;2.23;;;2.03;;
12171;SDS011;6149;52.418;13.668;2022-10-16T07:56:02;4.27;;;2.03;;
12171;SDS011;6149;52.418;13.668;2022-10-16T07:58:32;2.07;;;1.60;;
12171;SDS011;6149;52.418;13.668;2022-10-16T08:01:03;2.93;;;1.90;;
12171;SDS011;6149;52.418;13.668;2022-10-16T08:03:33;3.97;;;1.90;;
12171;SDS011;6149;52.418;13.668;2022-10-16T08:06:01;2.67;;;1.80;;
12171;SDS011;6149;52.418;13.668;2022-10-16T08:08:32;4.40;;;2.00;;
12171;SDS011;6149;52.418;13.668;2022-10-16T08:11:01;3.07;;;1.70;;
12171;SDS011;6149;52.418;13.668;2022-10-16T08:13:30;3.23;;;1.93;;
12171;SDS011;6149;52.418;13.668;2022-10-16T08:15:59;4.10;;;2.07;;
12171;SDS011;6149;52.418;13.668;2022-10-16T08:18:27;3.80;;;1.70;;
12171;SDS011;6149;52.418;13.668;2022-10-16T08:20:58;5.00;;;1.90;;
12171;SDS011;6149;52.418;13.668;2022-10-16T08:23:28;1.80;;;1.70;;
12171;SDS011;6149;52.418;13.668;2022-10-16T08:26:01;4.57;;;1.93;;
12171;SDS011;6149;52.418;13.668;2022-10-16T08:28:31;5.70;;;2.13;;
12171;SDS011;6149;52.418;13.668;2022-10-16T08:31:09;2.00;;;1.80;;
12171;SDS011;6149;52.418;13.668;2022-10-16T08:33:39;3.90;;;2.10;;
12171;SDS011;6149;52.418;13.668;2022-10-16T08:36:11;3.30;;;1.73;;
12171;SDS011;6149;52.418;13.668;2022-10-16T08:38:41;3.10;;;1.83;;
12171;SDS011;6149;52.418;13.668;2022-10-16T08:41:17;2.47;;;1.60;;
12171;SDS011;6149;52.418;13.668;2022-10-16T08:44:04;4.50;;;1.87;;
12171;SDS011;6149;52.418;13.668;2022-10-16T08:47:06;3.37;;;1.70;;
12171;SDS011;6149;52.418;13.668;2022-10-16T08:49:40;4.13;;;1.33;;
12171;SDS011;6149;52.418;13.668;2022-10-16T08:52:10;2.80;;;1.53;;
12171;SDS011;6149;52.418;13.668;2022-10-16T08:54:42;3.03;;;1.07;;
12171;SDS011;6149;52.418;13.668;2022-10-16T08:57:14;1.70;;;1.00;;
12171;SDS011;6149;52.418;13.668;2022-10-16T08:59:46;2.10;;;1.20;;
12171;SDS011;6149;52.418;13.668;2022-10-16T09:02:20;2.20;;;1.07;;
12171;SDS011;6149;52.418;13.668;2022-10-16T09:07:57;2.40;;;1.00;;
12171;SDS011;6149;52.418;13.668;2022-10-16T09:10:36;2.13;;;0.80;;
12171;SDS011;6149;52.418;13.668;2022-10-16T09:13:14;3.30;;;1.10;;
12171;SDS011;6149;52.418;13.668;2022-10-16T09:15:52;2.50;;;1.00;;
12171;SDS011;6149;52.418;13.668;2022-10-16T09:18:29;2.13;;;1.30;;
12171;SDS011;6149;52.418;13.668;2022-10-16T09:21:08;1.00;;;0.80;;
12171;SDS011;6149;52.418;13.668;2022-10-16T09:23:42;1.47;;;1.10;;
12171;SDS011;6149;52.418;13.668;2022-10-16T09:26:12;2.30;;;1.10;;
12171;SDS011;6149;52.418;13.668;2022-10-16T09:28:42;1.73;;;0.93;;
12171;SDS011;6149;52.418;13.668;2022-10-16T09:31:14;1.40;;;1.00;;
12171;SDS011;6149;52.418;13.668;2022-10-16T09:33:45;1.30;;;1.00;;
12171;SDS011;6149;52.418;13.668;2022-10-16T09:36:19;1.20;;;0.93;;
12171;SDS011;6149;52.418;13.668;2022-10-16T09:38:49;1.27;;;1.10;;
12171;SDS011;6149;52.418;13.668;2022-10-16T09:41:18;2.03;;;1.10;;
12171;SDS011;6149;52.418;13.668;2022-10-16T09:43:48;2.03;;;1.20;;
12171;SDS011;6149;52.418;13.668;2022-10-16T09:46:27;1.60;;;1.20;;
12171;SDS011;6149;52.418;13.668;2022-10-16T09:48:57;1.33;;;0.90;;
12171;SDS011;6149;52.418;13.668;2022-10-16T09:51:27;2.10;;;1.20;;
12171;SDS011;6149;52.418;13.668;2022-10-16T09:53:58;2.03;;;1.00;;
12171;SDS011;6149;52.418;13.668;2022-10-16T09:56:29;1.87;;;1.10;;
12171;SDS011;6149;52.418;13.668;2022-10-16T09:59:00;5.07;;;1.23;;
12171;SDS011;6149;52.418;13.668;2022-10-16T10:01:35;2.50;;;1.00;;
12171;SDS011;6149;52.418;13.668;2022-10-16T10:04:07;2.90;;;1.20;;
12171;SDS011;6149;52.418;13.668;2022-10-16T10:06:36;1.73;;;1.27;;
12171;SDS011;6149;52.418;13.668;2022-10-16T10:09:14;1.80;;;1.20;;
12171;SDS011;6149;52.418;13.668;2022-10-16T10:11:52;2.83;;;1.20;;
12171;SDS011;6149;52.418;13.668;2022-10-16T10:14:22;2.97;;;1.30;;
12171;SDS011;6149;52.418;13.668;2022-10-16T10:19:40;2.13;;;1.00;;
12171;SDS011;6149;52.418;13.668;2022-10-16T10:22:17;2.20;;;1.40;;
12171;SDS011;6149;52.418;13.668;2022-10-16T10:24:55;1.20;;;1.10;;
12171;SDS011;6149;52.418;13.668;2022-10-16T10:27:31;1.77;;;1.10;;
12171;SDS011;6149;52.418;13.668;2022-10-16T10:30:08;1.50;;;1.27;;
12171;SDS011;6149;52.418;13.668;2022-10-16T10:32:45;1.83;;;1.10;;
12171;SDS011;6149;52.418;13.668;2022-10-16T10:35:22;1.83;;;1.20;;
12171;SDS011;6149;52.418;13.668;2022-10-16T10:38:02;1.00;;;0.90;;
12171;SDS011;6149;52.418;13.668;2022-10-16T10:40:45;4.67;;;1.30;;
12171;SDS011;6149;52.418;13.668;2022-10-16T10:43:25;1.23;;;0.97;;
12171;SDS011;6149;52.418;13.668;2022-10-16T10:46:07;2.83;;;0.93;;
12171;SDS011;6149;52.418;13.668;2022-10-16T10:48:51;2.97;;;1.60;;
12171;SDS011;6149;52.418;13.668;2022-10-16T10:51:35;2.23;;;1.20;;
12171;SDS011;6149;52.418;13.668;2022-10-16T10:54:17;1.47;;;0.83;;
12171;SDS011;6149;52.418;13.668;2022-10-16T10:56:50;0.70;;;0.70;;
12171;SDS011;6149;52.418;13.668;2022-10-16T10:59:35;3.13;;;1.03;;
12171;SDS011;6149;52.418;13.668;2022-10-16T11:02:18;1.67;;;1.20;;
12171;SDS011;6149;52.418;13.668;2022-10-16T11:04:57;0.80;;;0.80;;
12171;SDS011;6149;52.418;13.668;2022-10-16T11:07:43;1.60;;;1.00;;
12171;SDS011;6149;52.418;13.668;2022-10-16T11:10:17;1.70;;;1.13;;
12171;SDS011;6149;52.418;13.668;2022-10-16T11:12:48;1.23;;;0.77;;
12171;SDS011;6149;52.418;13.668;2022-10-16T11:15:23;3.40;;;0.90;;
12171;SDS011;6149;52.418;13.668;2022-10-16T11:17:55;1.77;;;0.80;;
12171;SDS011;6149;52.418;13.668;2022-10-16T11:20:33;2.87;;;0.80;;
12171;SDS011;6149;52.418;13.668;2022-10-16T11:23:07;1.80;;;0.83;;
12171;SDS011;6149;52.418;13.668;2022-10-16T11:25:43;1.20;;;0.90;;
12171;SDS011;6149;52.418;13.668;2022-10-16T11:28:14;2.00;;;1.07;;
12171;SDS011;6149;52.418;13.668;2022-10-16T11:30:49;1.20;;;0.73;;
12171;SDS011;6149;52.418;13.668;2022-10-16T11:33:23;1.80;;;0.80;;
12171;SDS011;6149;52.418;13.668;2022-10-16T11:36:00;0.73;;;0.70;;
12171;SDS011;6149;52.418;13.668;2022-10-16T11:38:37;2.33;;;0.80;;
12171;SDS011;6149;52.418;13.668;2022-10-16T11:41:15;2.20;;;0.77;;
12171;SDS011;6149;52.418;13.668;2022-10-16T11:43:52;1.83;;;0.70;;
12171;SDS011;6149;52.418;13.668;2022-10-16T11:46:35;3.47;;;0.70;;
12171;SDS011;6149;52.418;13.668;2022-10-16T11:49:08;2.93;;;0.70;;
12171;SDS011;6149;52.418;13.668;2022-10-16T11:51:39;2.10;;;0.80;;
12171;SDS011;6149;52.418;13.668;2022-10-16T11:54:14;2.23;;;0.80;;
12171;SDS011;6149;52.418;13.668;2022-10-16T11:56:50;1.77;;;0.90;;
12171;SDS011;6149;52.418;13.668;2022-10-16T11:59:23;1.30;;;0.93;;
12171;SDS011;6149;52.418;13.668;2022-10-16T12:01:59;4.93;;;1.20;;
12171;SDS011;6149;52.418;13.668;2022-10-16T12:05:05;1.20;;;0.80;;
12171;SDS011;6149;52.418;13.668;2022-10-16T12:07:47;0.90;;;0.70;;
12171;SDS011;6149;52.418;13.668;2022-10-16T12:10:23;1.87;;;0.70;;
12171;SDS011;6149;52.418;13.668;2022-10-16T12:12:55;4.40;;;1.10;;
12171;SDS011;6149;52.418;13.668;2022-10-16T12:15:23;1.97;;;0.87;;
12171;SDS011;6149;52.418;13.668;2022-10-16T12:17:55;1.00;;;0.50;;
12171;SDS011;6149;52.418;13.668;2022-10-16T12:20:24;2.87;;;0.70;;
12171;SDS011;6149;52.418;13.668;2022-10-16T12:22:57;1.57;;;0.80;;
12171;SDS011;6149;52.418;13.668;2022-10-16T12:25:28;1.57;;;0.80;;
12171;SDS011;6149;52.418;13.668;2022-10-16T12:27:59;1.80;;;0.70;;
12171;SDS011;6149;52.418;13.668;2022-10-16T12:30:29;1.43;;;0.80;;
12171;SDS011;6149;52.418;13.668;2022-10-16T12:33:01;0.63;;;0.50;;
12171;SDS011;6149;52.418;13.668;2022-10-16T12:35:31;1.17;;;0.60;;
12171;SDS011;6149;52.418;13.668;2022-10-16T12:38:12;1.57;;;0.70;;
12171;SDS011;6149;52.418;13.668;2022-10-16T12:40:44;1.00;;;0.70;;
12171;SDS011;6149;52.418;13.668;2022-10-16T12:43:24;2.20;;;0.70;;
12171;SDS011;6149;52.418;13.668;2022-10-16T12:46:19;0.70;;;0.50;;
12171;SDS011;6149;52.418;13.668;2022-10-16T12:49:17;1.53;;;0.70;;
12171;SDS011;6149;52.418;13.668;2022-10-16T12:51:58;2.10;;;0.53;;
12171;SDS011;6149;52.418;13.668;2022-10-16T12:54:27;1.63;;;0.60;;
12171;SDS011;6149;52.418;13.668;2022-10-16T12:57:09;1.27;;;0.70;;
12171;SDS011;6149;52.418;13.668;2022-10-16T12:59:53;0.80;;;0.60;;
12171;SDS011;6149;52.418;13.668;2022-10-16T13:06:11;1.30;;;0.60;;
12171;SDS011;6149;52.418;13.668;2022-10-16T13:11:52;0.93;;;0.50;;
12171;SDS011;6149;52.418;13.668;2022-10-16T13:14:44;0.53;;;0.40;;
12171;SDS011;6149;52.418;13.668;2022-10-16T13:17:28;1.80;;;0.57;;
12171;SDS011;6149;52.418;13.668;2022-10-16T13:20:09;1.53;;;0.50;;
12171;SDS011;6149;52.418;13.668;2022-10-16T13:22:50;0.53;;;0.50;;
12171;SDS011;6149;52.418;13.668;2022-10-16T13:25:28;1.57;;;0.73;;
12171;SDS011;6149;52.418;13.668;2022-10-16T13:28:11;0.43;;;0.40;;
12171;SDS011;6149;52.418;13.668;2022-10-16T13:30:41;0.80;;;0.50;;
12171;SDS011;6149;52.418;13.668;2022-10-16T13:33:13;1.27;;;0.70;;
12171;SDS011;6149;52.418;13.668;2022-10-16T13:35:48;1.10;;;0.67;;
12171;SDS011;6149;52.418;13.668;2022-10-16T13:38:20;0.63;;;0.57;;
12171;SDS011;6149;52.418;13.668;2022-10-16T13:40:51;0.47;;;0.43;;
12171;SDS011;6149;52.418;13.668;2022-10-16T13:43:22;1.63;;;0.60;;
12171;SDS011;6149;52.418;13.668;2022-10-16T13:45:56;1.67;;;0.60;;
12171;SDS011;6149;52.418;13.668;2022-10-16T13:48:26;2.00;;;0.70;;
12171;SDS011;6149;52.418;13.668;2022-10-16T13:51:01;0.83;;;0.57;;
12171;SDS011;6149;52.418;13.668;2022-10-16T13:53:35;0.83;;;0.83;;
12171;SDS011;6149;52.418;13.668;2022-10-16T13:56:03;0.70;;;0.70;;
12171;SDS011;6149;52.418;13.668;2022-10-16T13:58:33;1.90;;;0.90;;
12171;SDS011;6149;52.418;13.668;2022-10-16T14:01:01;1.30;;;0.77;;
12171;SDS011;6149;52.418;13.668;2022-10-16T14:03:32;1.20;;;1.10;;
12171;SDS011;6149;52.418;13.668;2022-10-16T14:06:01;2.43;;;1.57;;
12171;SDS011;6149;52.418;13.668;2022-10-16T14:08:31;2.37;;;1.50;;
12171;SDS011;6149;52.418;13.668;2022-10-16T14:11:00;1.10;;;0.90;;
12171;SDS011;6149;52.418;13.668;2022-10-16T14:13:32;1.13;;;0.93;;
12171;SDS011;6149;52.418;13.668;2022-10-16T14:16:05;1.03;;;0.80;;
12171;SDS011;6149;52.418;13.668;2022-10-16T14:18:36;1.83;;;1.10;;
12171;SDS011;6149;52.418;13.668;2022-10-16T14:21:05;1.20;;;0.77;;
12171;SDS011;6149;52.418;13.668;2022-10-16T14:23:35;1.17;;;0.80;;
12171;SDS011;6149;52.418;13.668;2022-10-16T14:26:18;0.80;;;0.70;;
12171;SDS011;6149;52.418;13.668;2022-10-16T14:28:49;0.67;;;0.60;;
12171;SDS011;6149;52.418;13.668;2022-10-16T14:31:35;1.90;;;0.70;;
12171;SDS011;6149;52.418;13.668;2022-10-16T14:34:03;0.63;;;0.60;;
12171;SDS011;6149;52.418;13.668;2022-10-16T14:36:30;0.80;;;0.60;;
12171;SDS011;6149;52.418;13.668;2022-10-16T14:38:59;12.63;;;1.60;;
12171;SDS011;6149;52.418;13.668;2022-10-16T14:41:31;28.70;;;2.50;;
12171;SDS011;6149;52.418;13.668;2022-10-16T14:44:09;1.53;;;0.70;;
12171;SDS011;6149;52.418;13.668;2022-10-16T14:46:38;1.20;;;0.60;;
12171;SDS011;6149;52.418;13.668;2022-10-16T14:49:13;1.27;;;0.87;;
12171;SDS011;6149;52.418;13.668;2022-10-16T14:51:45;1.87;;;0.80;;
12171;SDS011;6149;52.418;13.668;2022-10-16T14:54:15;1.17;;;0.73;;
12171;SDS011;6149;52.418;13.668;2022-10-16T14:56:47;1.03;;;0.70;;
12171;SDS011;6149;52.418;13.668;2022-10-16T14:59:18;1.30;;;0.80;;
12171;SDS011;6149;52.418;13.668;2022-10-16T15:01:52;1.50;;;0.70;;
12171;SDS011;6149;52.418;13.668;2022-10-16T15:04:20;1.47;;;0.70;;
12171;SDS011;6149;52.418;13.668;2022-10-16T15:06:48;3.13;;;0.80;;
12171;SDS011;6149;52.418;13.668;2022-10-16T15:09:16;2.83;;;0.97;;
12171;SDS011;6149;52.418;13.668;2022-10-16T15:11:43;1.37;;;0.77;;
12171;SDS011;6149;52.418;13.668;2022-10-16T15:14:15;2.53;;;0.80;;
12171;SDS011;6149;52.418;13.668;2022-10-16T15:16:45;1.40;;;0.80;;
12171;SDS011;6149;52.418;13.668;2022-10-16T15:19:13;1.70;;;0.90;;
12171;SDS011;6149;52.418;13.668;2022-10-16T15:21:40;1.53;;;0.83;;
12171;SDS011;6149;52.418;13.668;2022-10-16T15:24:09;1.27;;;1.00;;
12171;SDS011;6149;52.418;13.668;2022-10-16T15:26:40;1.77;;;0.80;;
12171;SDS011;6149;52.418;13.668;2022-10-16T15:29:07;2.30;;;0.90;;